Information Last Ob Photographs Calibration Meteogram Network Table Neighbors Monthly Summaries Observation History Wind Roses Custom Wind Roses Data Calendar Satellite Cloud Product Download

02 March 2024 Observation History, [EST] ESTHERVILLE, timezone: America/Chicago

Select Date: Time Order:

Show METARs   Show High Frequency MADIS

Previous Day
Time Wind
(mph)
Vis.
(mi.)
Sky Cond.
(100s ft)
Present Wx Temperature (ºF) Relative
Humidity
Pressure Snow
Depth
(in)
Precipitation (in.)
Air Dwpt Feels Like 6 hour altimeter
(in.)
sea level
(mb)
1 hr 3 hr 6 hr
Max.Min.
12:00 AMSSW 1210 CLR
% 29.83
KEST 020600Z AUTO 19010KT 10SM CLR 01/M02 A2983 RMK T00101020 MADISHF
12:05 AMSSW 1210 CLR
% 29.83
KEST 020605Z AUTO 19010KT 10SM CLR 02/M01 A2983 RMK T00201010 MADISHF
12:10 AMSSW 1010 CLR
% 29.83
KEST 020610Z AUTO 19009KT 10SM CLR 02/M01 A2983 RMK T00201010 MADISHF
12:15 AMSSW 910 CLR
% 29.83
KEST 020615Z AUTO 19008KT 10SM CLR 01/M01 A2983 RMK T00101010 MADISHF
12:20 AMSSW 1010 CLR
% 29.83
KEST 020620Z AUTO 19009KT 10SM CLR 01/M02 A2983 RMK T00101020 MADISHF
12:25 AMSSW 910 CLR
% 29.83
KEST 020625Z AUTO 19008KT 10SM CLR 01/M01 A2983 RMK T00101010 MADISHF
12:30 AMSSW 910 CLR
% 29.83
KEST 020630Z AUTO 19008KT 10SM CLR 01/M01 A2983 RMK T00101010 MADISHF
12:35 AMSSW 910 CLR
% 29.83
KEST 020635Z AUTO 19008KT 10SM CLR 01/M02 A2983 RMK T00101020 MADISHF
12:45 AMS 910 CLR
% 29.83
KEST 020645Z AUTO 18008KT 10SM CLR 01/M02 A2983 RMK T00101020 MADISHF
12:50 AMS 1010 CLR
% 29.83
KEST 020650Z AUTO 18009KT 10SM CLR 01/M02 A2983 RMK T00101020 MADISHF
12:52 AMS 1010 CLR
332925 85% 29.831010.80
KEST 020652Z AUTO 18009KT 10SM CLR 01/M02 A2983 RMK AO2 SLP108 T00061017
1:00 AMS 1210 CLR
% 29.83
KEST 020700Z AUTO 18010KT 10SM CLR 01/M02 A2983 RMK T00101020 MADISHF
1:05 AMS 1210 CLR
% 29.84
KEST 020705Z AUTO 18010KT 10SM CLR 01/M02 A2984 RMK T00101020 MADISHF
1:10 AMS 1210 CLR
% 29.84
KEST 020710Z AUTO 18010KT 10SM CLR 01/M02 A2984 RMK T00101020 MADISHF
1:20 AMS 1010 CLR
% 29.83
KEST 020720Z AUTO 18009KT 10SM CLR 00/M02 A2983 RMK T00001020 MADISHF
1:25 AMS 99 CLR
% 29.83
KEST 020725Z AUTO 18008KT 9SM CLR 00/M02 A2983 RMK T00001020 MADISHF
1:30 AMSSW 139 CLR
% 29.84
KEST 020730Z AUTO 19011KT 9SM CLR 00/M02 A2984 RMK T00001020 MADISHF
1:35 AMSSW 129 CLR
% 29.84
KEST 020735Z AUTO 19010KT 9SM CLR 01/M02 A2984 RMK T00101020 MADISHF
1:40 AMSSW 139 CLR
% 29.83
KEST 020740Z AUTO 19011KT 9SM CLR 01/M01 A2983 RMK T00101010 MADISHF
1:45 AMSSW 129 CLR
% 29.83
KEST 020745Z AUTO 19010KT 9SM CLR 01/M02 A2983 RMK T00101020 MADISHF
1:50 AMS 109 CLR
% 29.83
KEST 020750Z AUTO 18009KT 9SM CLR 00/M02 A2983 RMK T00001020 MADISHF
1:52 AMS 109 CLR
322924 89% 29.831010.80
KEST 020752Z AUTO 18009KT 9SM CLR 00/M02 A2983 RMK AO2 SLP108 T00001017
2:00 AMS 98 CLR
% 29.83
KEST 020800Z AUTO 18008KT 8SM CLR M01/M02 A2983 RMK T10101020 MADISHF
2:05 AMSSW 88 CLR
% 29.83
KEST 020805Z AUTO 19007KT 8SM CLR M01/M02 A2983 RMK T10101020 MADISHF
2:10 AMSSW 88 CLR
% 29.83
KEST 020810Z AUTO 19007KT 8SM CLR M01/M02 A2983 RMK T10101020 MADISHF

The IEM API webservice that provided data to this page. For more details, see documentation.

Data Notes

  • For recent years, this page also optionally shows observations from the MADIS High Frequency METAR dataset. This dataset had a problem with temperatures detailed here.